createdAt,value
2023-09-19T00:00:24.772Z,100347.00
2023-09-19T00:02:58.849Z,100358.59
2023-09-19T00:05:28.887Z,100366.22
2023-09-19T00:07:57.772Z,100361.84
2023-09-19T00:10:28.380Z,100358.75
2023-09-19T00:13:00.073Z,100361.97
2023-09-19T00:15:30.074Z,100361.53
2023-09-19T00:17:57.466Z,100370.72
2023-09-19T00:20:25.364Z,100358.28
2023-09-19T00:22:55.016Z,100361.38
2023-09-19T00:25:22.003Z,100363.63
2023-09-19T00:27:52.722Z,100362.66
2023-09-19T00:30:22.918Z,100368.28
2023-09-19T00:32:53.382Z,100366.03
2023-09-19T00:35:20.406Z,100367.59
2023-09-19T00:37:47.180Z,100368.97
2023-09-19T00:40:14.247Z,100370.97
2023-09-19T00:42:41.992Z,100368.97
2023-09-19T00:45:12.216Z,100378.00
2023-09-19T00:47:50.373Z,100382.22
2023-09-19T00:50:22.487Z,100385.16
2023-09-19T00:52:51.441Z,100396.88
2023-09-19T00:55:21.735Z,100393.91
2023-09-19T00:57:51.392Z,100396.00
2023-09-19T01:00:22.155Z,100406.72
2023-09-19T01:02:49.700Z,100394.47
2023-09-19T01:05:17.247Z,100400.50
2023-09-19T01:07:46.023Z,100405.31
2023-09-19T01:10:15.645Z,100399.22
2023-09-19T01:13:07.015Z,100410.06
2023-09-19T01:15:45.918Z,100420.94
2023-09-19T01:18:23.343Z,100413.75
2023-09-19T01:21:02.261Z,100416.28
2023-09-19T01:23:49.016Z,100414.56
2023-09-19T01:26:53.437Z,100421.91
2023-09-19T01:29:51.384Z,100422.91
2023-09-19T01:32:23.589Z,100427.41
2023-09-19T01:35:05.285Z,100425.28
2023-09-19T01:37:32.751Z,100421.63
2023-09-19T01:40:09.896Z,100430.09
2023-09-19T01:42:37.133Z,100441.59
2023-09-19T01:45:24.101Z,100440.78
2023-09-19T01:47:57.781Z,100441.75
2023-09-19T01:50:42.248Z,100443.28
2023-09-19T01:53:17.152Z,100444.13
2023-09-19T01:55:50.731Z,100442.19
2023-09-19T01:58:35.277Z,100442.72
2023-09-19T02:01:02.653Z,100441.88
2023-09-19T02:03:30.359Z,100445.00
2023-09-19T02:05:57.292Z,100445.84
2023-09-19T02:08:26.953Z,100451.00
2023-09-19T02:10:54.267Z,100449.34
2023-09-19T02:13:22.527Z,100456.78
2023-09-19T02:15:49.463Z,100469.31
2023-09-19T02:18:16.242Z,100454.50
2023-09-19T02:20:43.201Z,100458.59
2023-09-19T02:23:11.100Z,100466.63
2023-09-19T02:25:39.423Z,100470.44
2023-09-19T02:28:06.855Z,100467.03
2023-09-19T02:30:34.199Z,100469.72
2023-09-19T02:33:04.511Z,100476.91
2023-09-19T02:35:36.701Z,100478.72
2023-09-19T02:38:07.809Z,100463.78
2023-09-19T02:40:37.334Z,100470.97
2023-09-19T02:43:04.831Z,100475.31
2023-09-19T02:45:32.055Z,100471.09
2023-09-19T02:47:59.525Z,100474.38
2023-09-19T02:50:26.293Z,100485.09
2023-09-19T02:52:53.197Z,100483.56
2023-09-19T02:55:21.370Z,100486.44
2023-09-19T02:57:49.868Z,100491.00
2023-09-19T03:00:18.213Z,100493.94
2023-09-19T03:02:47.616Z,100500.78
2023-09-19T03:05:14.954Z,100499.91
2023-09-19T03:07:44.387Z,100497.06
2023-09-19T03:10:11.277Z,100502.00
2023-09-19T03:12:38.111Z,100504.13
2023-09-19T03:15:05.891Z,100495.47
2023-09-19T03:17:34.115Z,100496.00
2023-09-19T03:20:00.983Z,100498.56
2023-09-19T03:22:28.674Z,100494.56
2023-09-19T03:24:55.541Z,100486.09
2023-09-19T03:27:22.408Z,100494.56
2023-09-19T03:29:49.225Z,100501.81
2023-09-19T03:32:16.573Z,100496.34
2023-09-19T03:34:44.615Z,100496.78
2023-09-19T03:37:11.682Z,100502.00
2023-09-19T03:39:38.537Z,100504.38
2023-09-19T03:42:05.486Z,100500.69
2023-09-19T03:44:32.195Z,100506.19
2023-09-19T03:46:59.267Z,100496.78
2023-09-19T03:49:26.087Z,100495.94
2023-09-19T03:51:53.135Z,100498.22
2023-09-19T03:54:20.900Z,100504.94
2023-09-19T03:56:47.654Z,100502.38
2023-09-19T03:59:15.029Z,100499.13
2023-09-19T04:01:42.669Z,100496.97
2023-09-19T04:04:09.732Z,100491.63
2023-09-19T04:06:36.681Z,100491.75
2023-09-19T04:09:04.849Z,100494.44
2023-09-19T04:11:32.613Z,100496.25
2023-09-19T04:13:59.547Z,100499.03
2023-09-19T04:16:26.695Z,100492.25
2023-09-19T04:18:53.487Z,100495.34
2023-09-19T04:21:20.493Z,100491.47
2023-09-19T04:23:47.366Z,100495.56
2023-09-19T04:26:14.081Z,100501.19
2023-09-19T04:28:41.817Z,100496.09
2023-09-19T04:31:09.526Z,100503.88
2023-09-19T04:33:36.609Z,100492.31
2023-09-19T04:36:14.736Z,100499.38
2023-09-19T04:38:51.704Z,100502.03
2023-09-19T04:41:18.455Z,100499.72
2023-09-19T04:43:45.192Z,100501.59
2023-09-19T04:46:12.113Z,100499.03
2023-09-19T04:48:39.393Z,100497.31
2023-09-19T04:51:06.558Z,100503.25
2023-09-19T04:53:33.359Z,100513.03
2023-09-19T04:56:00.015Z,100513.75
2023-09-19T04:58:26.992Z,100514.00
2023-09-19T05:00:53.874Z,100516.94
2023-09-19T05:03:21.528Z,100519.63
2023-09-19T05:05:48.317Z,100536.75
2023-09-19T05:08:16.015Z,100544.16
2023-09-19T05:10:42.913Z,100546.94
2023-09-19T05:13:09.749Z,100544.03
2023-09-19T05:15:36.983Z,100554.22
2023-09-19T05:18:04.786Z,100555.81
2023-09-19T05:20:33.955Z,100565.66
2023-09-19T05:23:06.945Z,100570.16
2023-09-19T05:25:34.272Z,100580.59
2023-09-19T05:28:05.182Z,100572.19
2023-09-19T05:30:32.037Z,100586.31
2023-09-19T05:32:59.343Z,100583.25
2023-09-19T05:35:27.686Z,100586.16
2023-09-19T05:37:56.105Z,100587.00
2023-09-19T05:40:23.343Z,100594.78
2023-09-19T05:42:51.883Z,100596.84
2023-09-19T05:45:23.725Z,100601.84
2023-09-19T05:47:51.482Z,100598.91
2023-09-19T05:50:19.815Z,100592.09
2023-09-19T05:52:54.137Z,100606.19
2023-09-19T05:55:22.224Z,100603.63
2023-09-19T05:57:53.016Z,100603.03
2023-09-19T06:00:25.085Z,100601.19
2023-09-19T06:02:56.052Z,100599.38
2023-09-19T06:05:23.229Z,100600.50
2023-09-19T06:07:50.135Z,100611.19
2023-09-19T06:10:18.778Z,100607.41
2023-09-19T06:12:45.710Z,100607.66
2023-09-19T06:15:24.204Z,100597.56
2023-09-19T06:17:52.062Z,100600.00
2023-09-19T06:20:19.225Z,100599.50
2023-09-19T06:22:46.986Z,100607.50
2023-09-19T06:25:21.172Z,100602.16
2023-09-19T06:27:56.209Z,100595.09
2023-09-19T06:30:27.254Z,100592.31
2023-09-19T06:32:58.309Z,100582.19
2023-09-19T06:35:27.500Z,100592.03
2023-09-19T06:37:54.395Z,100592.50
2023-09-19T06:40:21.350Z,100595.19
2023-09-19T06:42:50.553Z,100595.41
2023-09-19T06:45:20.582Z,100609.19
2023-09-19T06:47:51.110Z,100603.94
2023-09-19T06:50:24.335Z,100616.47
2023-09-19T06:52:53.256Z,100614.75
2023-09-19T06:55:21.657Z,100607.84
2023-09-19T06:57:49.403Z,100602.34
2023-09-19T07:00:17.261Z,100603.47
2023-09-19T07:02:44.110Z,100616.47
2023-09-19T07:05:11.118Z,100614.66
2023-09-19T07:07:38.182Z,100608.72
2023-09-19T07:10:11.498Z,100621.94
2023-09-19T07:12:38.222Z,100617.56
2023-09-19T07:15:07.277Z,100621.94
2023-09-19T07:17:34.600Z,100617.91
2023-09-19T07:20:01.629Z,100624.25
2023-09-19T07:22:28.676Z,100624.72
2023-09-19T07:24:56.168Z,100632.75
2023-09-19T07:27:22.974Z,100630.53
2023-09-19T07:29:51.099Z,100638.56
2023-09-19T07:32:19.907Z,100636.75
2023-09-19T07:34:47.020Z,100624.34
2023-09-19T07:37:16.054Z,100635.88
2023-09-19T07:39:42.840Z,100635.78
2023-09-19T07:42:09.737Z,100650.59
2023-09-19T07:44:37.720Z,100640.13
2023-09-19T07:47:04.671Z,100637.59
2023-09-19T07:49:31.568Z,100633.56
2023-09-19T07:51:58.722Z,100640.34
2023-09-19T07:54:25.637Z,100633.75
2023-09-19T07:56:52.360Z,100651.75
2023-09-19T07:59:19.083Z,100646.31
2023-09-19T08:01:45.902Z,100651.44
2023-09-19T08:04:12.810Z,100656.78
2023-09-19T08:06:40.664Z,100647.03
2023-09-19T08:09:10.555Z,100659.69
2023-09-19T08:11:37.331Z,100649.44
2023-09-19T08:14:04.148Z,100642.94
2023-09-19T08:16:31.105Z,100648.78
2023-09-19T08:18:57.929Z,100659.75
2023-09-19T08:21:25.522Z,100658.38
2023-09-19T08:23:52.389Z,100673.75
2023-09-19T08:26:19.194Z,100663.50
2023-09-19T08:28:45.946Z,100672.63
2023-09-19T08:31:15.458Z,100667.03
2023-09-19T08:33:42.849Z,100668.22
2023-09-19T08:36:10.804Z,100668.91
2023-09-19T08:38:38.186Z,100670.09
2023-09-19T08:41:09.925Z,100671.41
2023-09-19T08:43:39.663Z,100681.72
2023-09-19T08:46:06.641Z,100682.31
2023-09-19T08:48:36.412Z,100678.25
2023-09-19T08:51:16.419Z,100683.66
2023-09-19T08:54:20.268Z,100687.66
2023-09-19T08:56:51.694Z,100680.53
2023-09-19T08:59:30.704Z,100671.75
2023-09-19T09:01:58.964Z,100684.19
2023-09-19T09:04:27.668Z,100676.59
2023-09-19T09:06:56.156Z,100678.28
2023-09-19T09:09:22.918Z,100676.19
2023-09-19T09:11:52.589Z,100688.41
2023-09-19T09:14:19.945Z,100679.22
2023-09-19T09:16:47.168Z,100677.78
2023-09-19T09:19:14.156Z,100673.84
2023-09-19T09:21:40.884Z,100671.91
2023-09-19T09:24:35.474Z,100656.13
2023-09-19T09:27:08.550Z,100682.84
2023-09-19T09:29:52.665Z,100661.50
2023-09-19T09:32:30.376Z,100662.91
2023-09-19T09:35:01.431Z,100665.19
2023-09-19T09:37:33.014Z,100667.31
2023-09-19T09:40:15.978Z,100665.91
2023-09-19T09:42:42.920Z,100667.63
2023-09-19T09:45:37.066Z,100666.94
2023-09-19T09:48:05.347Z,100667.06
2023-09-19T09:50:43.176Z,100684.44
2023-09-19T09:53:33.648Z,100666.78
2023-09-19T09:56:01.376Z,100674.69
2023-09-19T09:58:33.160Z,100663.84
2023-09-19T10:01:01.357Z,100668.66
2023-09-19T10:03:51.023Z,100667.84
2023-09-19T10:06:29.242Z,100667.47
2023-09-19T10:09:11.746Z,100665.50
2023-09-19T10:11:45.586Z,100656.63
2023-09-19T10:14:13.980Z,100668.94
2023-09-19T10:16:49.486Z,100654.34
2023-09-19T10:19:26.262Z,100655.06
2023-09-19T10:21:56.637Z,100639.81
2023-09-19T10:24:24.558Z,100642.47
2023-09-19T10:26:52.101Z,100638.09
2023-09-19T10:29:19.251Z,100649.25
2023-09-19T10:31:49.199Z,100644.75
2023-09-19T10:34:16.793Z,100636.47
2023-09-19T10:36:46.682Z,100644.09
2023-09-19T10:39:20.921Z,100639.38
2023-09-19T10:42:00.095Z,100637.53
2023-09-19T10:44:27.179Z,100637.69
2023-09-19T10:46:55.174Z,100643.53
2023-09-19T10:49:25.964Z,100638.25
2023-09-19T10:51:59.644Z,100640.91
2023-09-19T10:54:30.403Z,100632.97
2023-09-19T10:57:00.189Z,100656.25
2023-09-19T10:59:27.108Z,100628.50
2023-09-19T11:02:00.029Z,100647.25
2023-09-19T11:04:37.209Z,100648.13
2023-09-19T11:07:13.835Z,100632.00
2023-09-19T11:09:59.124Z,100641.25
2023-09-19T11:12:52.229Z,100679.34
2023-09-19T11:16:04.980Z,100639.19
2023-09-19T11:18:44.864Z,100631.56
2023-09-19T11:21:32.244Z,100644.41
2023-09-19T11:24:26.538Z,100649.81
2023-09-19T11:27:11.248Z,100652.97
2023-09-19T11:29:39.002Z,100670.19
2023-09-19T11:32:07.294Z,100653.31
2023-09-19T11:34:37.431Z,100639.38
2023-09-19T11:37:30.549Z,100640.88
2023-09-19T11:40:17.744Z,100629.91
2023-09-19T11:42:52.503Z,100659.81
2023-09-19T11:45:59.251Z,100649.06
2023-09-19T11:48:29.297Z,100640.44
2023-09-19T11:50:57.533Z,100636.56
2023-09-19T11:53:24.433Z,100622.81
2023-09-19T11:55:53.182Z,100622.44
2023-09-19T11:58:21.285Z,100615.66
2023-09-19T12:00:55.731Z,100622.91
2023-09-19T12:03:22.999Z,100611.19
2023-09-19T12:05:49.877Z,100616.81
2023-09-19T12:08:18.484Z,100612.56
2023-09-19T12:10:52.598Z,100605.09
2023-09-19T12:13:20.287Z,100623.44
2023-09-19T12:15:49.390Z,100618.66
2023-09-19T12:18:32.019Z,100598.66
2023-09-19T12:20:59.699Z,100619.19
2023-09-19T12:23:29.266Z,100609.50
2023-09-19T12:25:58.864Z,100623.91
2023-09-19T12:28:33.494Z,100585.31
2023-09-19T12:31:10.292Z,100583.81
2023-09-19T12:33:38.321Z,100599.72
2023-09-19T12:36:26.668Z,100569.78
2023-09-19T12:38:59.680Z,100568.59
2023-09-19T12:41:27.352Z,100580.34
2023-09-19T12:43:55.691Z,100594.22
2023-09-19T12:46:29.203Z,100570.00
2023-09-19T12:49:21.242Z,100573.66
2023-09-19T12:51:49.163Z,100573.38
2023-09-19T12:54:17.262Z,100563.97
2023-09-19T12:56:46.315Z,100576.44
2023-09-19T12:59:16.734Z,100572.75
2023-09-19T13:01:50.294Z,100570.94
2023-09-19T13:04:22.263Z,100585.84
2023-09-19T13:06:51.902Z,100582.63
2023-09-19T13:09:21.726Z,100572.25
2023-09-19T13:11:49.434Z,100570.88
2023-09-19T13:14:22.265Z,100572.09
2023-09-19T13:17:05.549Z,100566.16
2023-09-19T13:19:59.531Z,100583.25
2023-09-19T13:22:55.135Z,100583.34
2023-09-19T13:25:23.364Z,100568.72
2023-09-19T13:27:53.799Z,100580.41
2023-09-19T13:30:21.628Z,100580.53
2023-09-19T13:32:48.850Z,100599.53
2023-09-19T13:35:16.702Z,100580.75
2023-09-19T13:37:44.806Z,100591.59
2023-09-19T13:40:13.001Z,100586.34
2023-09-19T13:42:41.336Z,100595.44
2023-09-19T13:45:09.283Z,100580.13
2023-09-19T13:47:37.828Z,100573.50
2023-09-19T13:50:05.929Z,100573.81
2023-09-19T13:52:33.054Z,100583.25
2023-09-19T13:55:00.709Z,100578.13
2023-09-19T13:57:28.077Z,100588.41
2023-09-19T13:59:56.984Z,100581.13
2023-09-19T14:02:24.397Z,100572.06
2023-09-19T14:04:54.836Z,100585.28
2023-09-19T14:07:22.638Z,100586.94
2023-09-19T14:09:49.456Z,100584.25
2023-09-19T14:12:16.797Z,100593.63
2023-09-19T14:14:44.039Z,100576.34
2023-09-19T14:17:11.152Z,100582.41
2023-09-19T14:19:40.371Z,100582.25
2023-09-19T14:22:11.304Z,100582.97
2023-09-19T14:24:42.435Z,100580.28
2023-09-19T14:27:10.451Z,100581.81
2023-09-19T14:29:41.066Z,100588.34
2023-09-19T14:32:08.015Z,100591.72
2023-09-19T14:34:35.011Z,100574.69
2023-09-19T14:37:01.929Z,100576.22
2023-09-19T14:39:31.121Z,100578.75
2023-09-19T14:42:01.128Z,100576.75
2023-09-19T14:44:34.657Z,100589.13
2023-09-19T14:47:01.493Z,100581.66
2023-09-19T14:49:30.196Z,100570.38
2023-09-19T14:51:56.973Z,100574.06
2023-09-19T14:54:25.332Z,100584.81
2023-09-19T14:57:05.231Z,100585.94
2023-09-19T14:59:33.363Z,100568.28
2023-09-19T15:02:00.537Z,100579.91
2023-09-19T15:04:31.668Z,100557.50
2023-09-19T15:06:58.572Z,100562.19
2023-09-19T15:09:27.493Z,100559.81
2023-09-19T15:11:54.943Z,100572.44
2023-09-19T15:14:22.522Z,100568.88
2023-09-19T15:16:49.972Z,100561.47
2023-09-19T15:19:17.936Z,100567.03
2023-09-19T15:21:45.437Z,100565.03
2023-09-19T15:24:12.211Z,100557.13
2023-09-19T15:26:42.021Z,100567.44
2023-09-19T15:29:09.016Z,100556.97
2023-09-19T15:31:38.110Z,100573.22
2023-09-19T15:34:06.256Z,100570.91
2023-09-19T15:36:33.134Z,100568.06
2023-09-19T15:39:08.773Z,100555.97
2023-09-19T15:41:47.373Z,100566.47
2023-09-19T15:44:16.712Z,100566.22
2023-09-19T15:46:44.052Z,100545.38
2023-09-19T15:49:11.305Z,100541.38
2023-09-19T15:51:40.111Z,100557.81
2023-09-19T15:54:16.087Z,100550.22
2023-09-19T15:56:43.955Z,100543.47
2023-09-19T15:59:11.171Z,100554.75
2023-09-19T16:01:39.405Z,100544.72
2023-09-19T16:04:06.752Z,100556.66
2023-09-19T16:06:33.788Z,100554.44
2023-09-19T16:09:00.960Z,100553.16
2023-09-19T16:11:29.342Z,100552.34
2023-09-19T16:13:57.206Z,100545.56
2023-09-19T16:16:24.917Z,100542.59
2023-09-19T16:19:00.896Z,100538.34
2023-09-19T16:21:29.251Z,100534.78
2023-09-19T16:23:57.704Z,100544.72
2023-09-19T16:26:25.697Z,100535.50
2023-09-19T16:28:57.989Z,100544.28
2023-09-19T16:31:25.082Z,100542.25
2023-09-19T16:33:51.890Z,100545.66
2023-09-19T16:36:20.108Z,100549.50
2023-09-19T16:38:49.222Z,100542.25
2023-09-19T16:41:17.781Z,100537.72
2023-09-19T16:43:44.899Z,100543.13
2023-09-19T16:46:15.254Z,100538.72
2023-09-19T16:49:02.321Z,100553.16
2023-09-19T16:51:30.111Z,100544.41
2023-09-19T16:53:57.384Z,100544.56
2023-09-19T16:56:24.363Z,100547.13
2023-09-19T16:58:53.088Z,100542.00
2023-09-19T17:01:21.914Z,100541.50
2023-09-19T17:03:49.864Z,100537.25
2023-09-19T17:06:19.444Z,100535.25
2023-09-19T17:08:46.994Z,100536.38
2023-09-19T17:11:17.279Z,100541.78
2023-09-19T17:13:45.531Z,100542.94
2023-09-19T17:16:14.013Z,100548.47
2023-09-19T17:18:44.401Z,100541.53
2023-09-19T17:21:14.217Z,100537.00
2023-09-19T17:23:42.236Z,100550.06
2023-09-19T17:26:15.504Z,100543.81
2023-09-19T17:28:43.190Z,100549.19
2023-09-19T17:31:23.132Z,100549.19
2023-09-19T17:33:52.235Z,100556.59
2023-09-19T17:36:24.206Z,100540.75
2023-09-19T17:38:54.404Z,100551.50
2023-09-19T17:41:23.222Z,100558.31
2023-09-19T17:43:58.314Z,100550.41
2023-09-19T17:46:30.853Z,100551.38
2023-09-19T17:48:59.480Z,100556.63
2023-09-19T17:51:28.125Z,100560.31
2023-09-19T17:53:58.515Z,100559.44
2023-09-19T17:56:25.629Z,100558.63
2023-09-19T17:59:00.281Z,100551.53
2023-09-19T18:01:33.931Z,100561.44
2023-09-19T18:04:03.713Z,100552.38
2023-09-19T18:06:33.077Z,100567.09
2023-09-19T18:09:03.107Z,100563.72
2023-09-19T18:11:30.315Z,100558.19
2023-09-19T18:13:58.880Z,100553.97
2023-09-19T18:16:26.980Z,100562.16
2023-09-19T18:18:54.949Z,100556.25
2023-09-19T18:21:22.213Z,100567.69
2023-09-19T18:23:58.536Z,100563.59
2023-09-19T18:26:25.318Z,100577.03
2023-09-19T18:28:52.219Z,100564.06
2023-09-19T18:31:19.547Z,100571.09
2023-09-19T18:33:51.580Z,100564.06
2023-09-19T18:36:18.571Z,100558.97
2023-09-19T18:38:46.292Z,100567.72
2023-09-19T18:41:16.596Z,100567.03
2023-09-19T18:43:43.937Z,100564.47
2023-09-19T18:46:11.403Z,100575.09
2023-09-19T18:48:39.450Z,100565.19
2023-09-19T18:51:07.712Z,100566.16
2023-09-19T18:53:35.479Z,100574.38
2023-09-19T18:56:09.369Z,100552.31
2023-09-19T18:58:36.387Z,100559.53
2023-09-19T19:01:04.678Z,100567.75
2023-09-19T19:03:32.022Z,100566.09
2023-09-19T19:05:59.418Z,100548.94
2023-09-19T19:08:26.848Z,100562.22
2023-09-19T19:10:53.690Z,100553.31
2023-09-19T19:13:20.483Z,100560.41
2023-09-19T19:15:47.297Z,100559.69
2023-09-19T19:18:14.111Z,100563.38
2023-09-19T19:20:42.936Z,100563.38
2023-09-19T19:23:10.996Z,100561.84
2023-09-19T19:25:38.896Z,100559.28
2023-09-19T19:28:06.322Z,100565.50
2023-09-19T19:30:33.362Z,100560.13
2023-09-19T19:33:00.138Z,100568.06
2023-09-19T19:35:30.398Z,100570.88
2023-09-19T19:37:57.405Z,100567.47
2023-09-19T19:40:24.276Z,100559.88
2023-09-19T19:42:51.574Z,100563.25
2023-09-19T19:45:18.313Z,100575.84
2023-09-19T19:47:45.270Z,100567.66
2023-09-19T19:50:15.084Z,100574.16
2023-09-19T19:52:41.820Z,100570.75
2023-09-19T19:55:10.818Z,100566.09
2023-09-19T19:57:38.143Z,100587.59
2023-09-19T20:00:07.807Z,100579.66
2023-09-19T20:02:36.793Z,100586.34
2023-09-19T20:05:08.072Z,100582.66
2023-09-19T20:07:35.533Z,100568.50
2023-09-19T20:10:02.485Z,100572.19
2023-09-19T20:12:30.017Z,100566.97
2023-09-19T20:14:57.690Z,100576.88
2023-09-19T20:17:25.605Z,100568.66
2023-09-19T20:19:53.941Z,100576.72
2023-09-19T20:22:20.796Z,100573.19
2023-09-19T20:24:48.523Z,100581.41
2023-09-19T20:27:15.271Z,100574.88
2023-09-19T20:29:43.304Z,100574.03
2023-09-19T20:32:10.690Z,100567.81
2023-09-19T20:34:37.440Z,100566.25
2023-09-19T20:37:06.758Z,100567.97
2023-09-19T20:39:33.656Z,100576.03
2023-09-19T20:42:00.474Z,100568.94
2023-09-19T20:44:28.362Z,100567.38
2023-09-19T20:46:56.081Z,100568.25
2023-09-19T20:49:25.065Z,100567.25
2023-09-19T20:51:52.157Z,100562.00
2023-09-19T20:54:18.909Z,100563.84
2023-09-19T20:56:45.718Z,100575.44
2023-09-19T20:59:12.856Z,100565.56
2023-09-19T21:01:39.823Z,100574.47
2023-09-19T21:04:06.798Z,100570.78
2023-09-19T21:06:33.679Z,100579.69
2023-09-19T21:09:00.410Z,100565.41
2023-09-19T21:11:29.331Z,100560.75
2023-09-19T21:13:56.574Z,100563.56
2023-09-19T21:16:23.339Z,100566.25
2023-09-19T21:18:50.718Z,100565.72
2023-09-19T21:21:17.623Z,100555.25
2023-09-19T21:23:45.388Z,100556.22
2023-09-19T21:26:12.790Z,100559.78
2023-09-19T21:28:40.181Z,100563.44
2023-09-19T21:31:09.764Z,100555.09
2023-09-19T21:33:39.050Z,100559.34
2023-09-19T21:36:10.844Z,100553.44
2023-09-19T21:38:41.025Z,100545.66
2023-09-19T21:41:15.288Z,100548.22
2023-09-19T21:43:42.244Z,100554.25
2023-09-19T21:46:09.535Z,100544.09
2023-09-19T21:48:36.799Z,100543.81
2023-09-19T21:51:07.214Z,100549.63
2023-09-19T21:53:37.466Z,100545.97
2023-09-19T21:56:06.484Z,100548.78
2023-09-19T21:58:36.523Z,100551.47
2023-09-19T22:01:08.378Z,100546.38
2023-09-19T22:03:37.833Z,100546.53
2023-09-19T22:06:13.703Z,100560.22
2023-09-19T22:08:41.291Z,100551.31
2023-09-19T22:11:12.151Z,100556.56
2023-09-19T22:13:44.765Z,100549.34
2023-09-19T22:16:16.512Z,100552.91
2023-09-19T22:18:47.379Z,100539.47
2023-09-19T22:21:20.192Z,100541.44
2023-09-19T22:23:47.959Z,100544.44
2023-09-19T22:26:20.017Z,100541.03
2023-09-19T22:28:51.478Z,100537.34
2023-09-19T22:31:27.737Z,100534.38
2023-09-19T22:33:58.848Z,100534.22
2023-09-19T22:36:37.833Z,100529.84
2023-09-19T22:39:05.431Z,100531.69
2023-09-19T22:41:33.768Z,100515.56
2023-09-19T22:44:01.414Z,100533.38
2023-09-19T22:46:29.250Z,100532.41
2023-09-19T22:48:56.812Z,100529.00
2023-09-19T22:51:24.579Z,100527.47
2023-09-19T22:54:00.546Z,100530.81
2023-09-19T22:56:29.008Z,100533.38
2023-09-19T22:58:56.895Z,100530.69
2023-09-19T23:01:35.868Z,100529.56
2023-09-19T23:04:09.636Z,100536.34
2023-09-19T23:06:37.010Z,100538.19
2023-09-19T23:09:05.150Z,100532.94
2023-09-19T23:11:33.689Z,100528.56
2023-09-19T23:14:02.502Z,100526.59
2023-09-19T23:16:29.424Z,100531.94
2023-09-19T23:18:58.261Z,100525.72
2023-09-19T23:21:29.807Z,100530.13
2023-09-19T23:23:58.617Z,100534.50
2023-09-19T23:26:28.680Z,100542.44
2023-09-19T23:28:55.739Z,100527.16
2023-09-19T23:31:23.594Z,100527.97
2023-09-19T23:33:51.827Z,100524.31
2023-09-19T23:36:18.606Z,100528.56
2023-09-19T23:38:48.262Z,100532.22
2023-09-19T23:41:22.472Z,100529.28
2023-09-19T23:43:53.857Z,100525.03
2023-09-19T23:46:22.091Z,100525.16
2023-09-19T23:48:48.945Z,100525.88
2023-09-19T23:51:20.967Z,100523.47
2023-09-19T23:53:47.743Z,100527.16
2023-09-19T23:56:16.074Z,100526.13
2023-09-19T23:58:48.352Z,100525.47
